CheckWX is a tool to help pilots better visualize weather data.  It is not intended as a substitute for an official pre-flight weather briefing.

11:15:47 UTC

KDTW TAF
Detroit Metropolitan Wayne County Airport
Detroit, Michigan, USA
KDTW 240810Z 2408/2512 VRB04KT P6SM SCT200 FM250400 12011KT P6SM FEW050 SCT080 BKN120

May-24@
08:00 UTC

May-24 @ 08:00 UTC

May-25@
04:00 UTC

May-25 @ 04:00 UTC

KDTW 240810Z 2408/2512 VRB04KT P6SM SCT200
Wind
  • Variable at 4 KTS
Cloud Levels
  • Scattered at 20,000' AGL

May-25@
04:00 UTC

May-25 @ 04:00 UTC

May-25@
12:00 UTC

May-25 @ 12:00 UTC

FM250400 12011KT P6SM FEW050 SCT080 BKN120

From

From Standard forecast or significant change

Wind
  • 120° at 11 KTS
Cloud Levels
  • Few at 5,000' AGL
  • Scattered at 8,000' AGL
  • Broken at 12,000' AGL